This is the latest recevied weather packets stored in our database for station/object KV9E. If no packets are shown the sender has not sent any weather packets the latest 10 day(s).
| Time | Temp. | Humidity | Pressure | Rain* | Wind** | Luminosity | Snow |
|---|---|---|---|---|---|---|---|
| 1788381022 | 33.89° C | 55% | 1018.1 hPa | 0 mm | - | 403 W/m² | - |
| 1788380718 | 33.33° C | 54% | 1018.4 hPa | 0 mm | - | 419 W/m² | - |
| 1788380414 | 33.89° C | 53% | 1018.3 hPa | 0 mm | - | 440 W/m² | - |
| 1788380109 | 34.44° C | 52% | 1018.3 hPa | 0 mm | - | 462 W/m² | - |
| 1788379803 | 33.89° C | 54% | 1018.4 hPa | 0 mm | - | 456 W/m² | - |
| 1788379493 | 33.33° C | 54% | 1018.5 hPa | 0 mm | - | 465 W/m² | - |
| 1788379188 | 33.33° C | 56% | 1018.5 hPa | 0 mm | - | 473 W/m² | - |
| 1788378884 | 33.33° C | 55% | 1018.5 hPa | 0 mm | - | 472 W/m² | - |
| 1788378578 | 33.33° C | 55% | 1018.6 hPa | 0 mm | - | 479 W/m² | - |
| 1788378277 | 33.33° C | 54% | 1018.6 hPa | 0 mm | - | 492 W/m² | - |
| 1788377973 | 32.78° C | 56% | 1018.8 hPa | 0 mm | - | 495 W/m² | - |
| 1788377669 | 32.78° C | 56% | 1018.8 hPa | 0 mm | - | 519 W/m² | - |
| 1788377367 | 32.22° C | 57% | 1019.1 hPa | 0 mm | - | 517 W/m² | - |
| 1788377066 | 32.22° C | 57% | 1019 hPa | 0 mm | - | 531 W/m² | - |
| 1788376765 | 32.78° C | 57% | 1019.1 hPa | 0 mm | - | 351 W/m² | - |
| 1788376461 | 33.33° C | 54% | 1019.5 hPa | 0 mm | - | 535 W/m² | - |
| 1788376156 | 32.78° C | 57% | 1019.3 hPa | 0 mm | - | 551 W/m² | - |
| 1788375851 | 32.78° C | 56% | 1019.2 hPa | 0 mm | - | 529 W/m² | - |
| 1788375547 | 32.22° C | 57% | 1019.3 hPa | 0 mm | - | 564 W/m² | - |
| 1788375243 | 31.11° C | 60% | 1019.4 hPa | 0 mm | - | 139 W/m² | - |
| 1788374937 | 31.67° C | 62% | 1019.4 hPa | 0 mm | - | 169 W/m² | - |
| 1788374633 | 31.11° C | 62% | 1019.4 hPa | 0 mm | - | 585 W/m² | - |
| 1788374328 | 30.56° C | 63% | 1019.6 hPa | 0 mm | - | 601 W/m² | - |
| 1788374025 | 30° C | 67% | 1019.4 hPa | 0 mm | - | 151 W/m² | - |
| 1788373720 | 30° C | 67% | 1019.9 hPa | 0 mm | - | 151 W/m² | - |
* Rain latest hour (hover to see other rain measurements)
** Current wind speed in m/s (hover to see current wind gust speed)